Data for 03/11/2005

Time Sea-Level Adjusted Pressure Absolute Pressure Temperature Relative Humidity Dew Point   
(mb) (inHg) (mb) (inHg) (C) (F) (%) (C) (F)
00:05 1024 30.24 853 25.19 4 39.2 43 -7.6 18.4
00:10 1024 30.24 853 25.19 4.1 39.4 40 -8.4 16.8
00:15 1024 30.24 853 25.19 5.1 41.1 36 -8.8 16.2
00:20 1024 30.24 853 25.19 5.2 41.4 35 -8.9 16
00:25 1024 30.24 853 25.19 5.2 41.4 38 -8.2 17.3
00:30 1024 30.24 853 25.19 4.6 40.3 42 -7.3 18.8
00:35 1024 30.24 853 25.19 4.1 39.4 43 -7.3 18.8
00:40 1024 30.24 853 25.19 3.7 38.6 45 -7.3 18.8
00:45 1024 30.24 853 25.19 3.5 38.3 44 -7.5 18.5
00:50 1024 30.24 853 25.19 3.3 37.9 45 -7.6 18.3
00:55 1024 30.24 853 25.19 3.4 38 44 -7.6 18.2
01:00 1024 30.24 853 25.19 3.2 37.7 46 -7.3 18.9
01:05 1024 30.24 853 25.19 2.9 37.2 47 -7.3 18.8
01:10 1024 30.24 853 25.19 2.8 37 46 -7.7 18.1
01:15 1024 30.24 853 25.19 2.9 37.3 46 -7.7 18.2
01:20 1024 30.24 853 25.19 3.1 37.5 46 -7.6 18.4
01:25 1024 30.24 853 25.19 2.9 37.2 46 -7.6 18.4
01:30 1024 30.24 853 25.19 3 37.4 46 -7.6 18.3
01:35 1024 30.24 853 25.19 2.9 37.3 46 -7.7 18.2
01:40 1024 30.24 853 25.19 3 37.5 45 -7.7 18.2
01:45 1024 30.24 853 25.19 3 37.4 46 -7.6 18.3
01:50 1024 30.24 853 25.19 2.9 37.2 45 -7.9 17.7
01:55 1024 30.24 853 25.19 3 37.3 43 -8.3 17
02:00 1024 30.24 853 25.19 3.1 37.6 43 -8.4 16.9
02:05 1024 30.24 853 25.19 3.5 38.2 41 -8.7 16.3
02:10 1024 30.24 853 25.19 3.5 38.2 42 -8.2 17.2
02:15 1024 30.24 853 25.19 3.2 37.8 45 -7.5 18.4
02:20 1024 30.24 853 25.19 2.8 37 47 -7.5 18.5
02:25 1024 30.24 853 25.19 2.5 36.6 46 -7.9 17.8
02:30 1024 30.24 853 25.19 2.5 36.6 45 -8.3 17.1
02:35 1024 30.24 853 25.19 2.7 36.8 47 -7.6 18.3
02:40 1024 30.24 853 25.19 2.2 36 48 -7.8 18
02:45 1024 30.24 853 25.19 2 35.7 49 -7.6 18.4
02:50 1024 30.24 853 25.19 2.1 35.7 47 -8 17.6
02:55 1024 30.24 853 25.19 2.2 36 45 -8.5 16.7
03:00 1024 30.24 853 25.19 2.5 36.5 45 -8.2 17.2
03:05 1024 30.24 853 25.19 2.3 36.1 46 -8.1 17.4
03:10 1024 30.24 853 25.19 2.4 36.3 46 -8.2 17.3
03:15 1024 30.24 853 25.19 2.5 36.5 43 -8.9 15.9
03:20 1024 30.24 853 25.19 2.7 36.9 42 -9 15.9
03:25 1024 30.24 853 25.19 2.7 36.9 43 -8.8 16.2
03:30 1024 30.24 853 25.19 2.6 36.6 45 -8.3 17
03:35 1024 30.24 853 25.19 2.4 36.4 46 -8.1 17.5
03:40 1024 30.24 853 25.19 2.4 36.4 46 -8.1 17.5
03:45 1024 30.24 853 25.19 2.4 36.3 45 -8.3 17.1
03:50 1023 30.21 853 25.19 2.3 36.1 46 -8.1 17.4
03:55 1023 30.21 853 25.19 2.5 36.4 46 -8.1 17.5
04:00 1023 30.21 853 25.19 2.4 36.3 46 -8 17.6
04:05 1023 30.21 852 25.16 2.4 36.3 46 -8.2 17.3
04:10 1023 30.21 852 25.16 2.4 36.4 45 -8.3 17
04:15 1023 30.21 852 25.16 2.8 37 43 -8.5 16.7
04:20 1023 30.21 852 25.16 2.7 36.8 43 -8.6 16.5
04:25 1023 30.21 852 25.16 2.7 36.9 42 -8.9 16
04:30 1023 30.21 852 25.16 2.7 36.9 40 -9.7 14.5
04:35 1023 30.21 852 25.16 2.9 37.3 39 -9.7 14.5
04:40 1023 30.21 852 25.16 3.2 37.7 35 -10.8 12.5
04:45 1023 30.21 852 25.16 3.8 38.8 38 -9.2 15.5
04:50 1023 30.21 852 25.16 3.2 37.8 37 -10.3 13.4
04:55 1023 30.21 852 25.16 3.7 38.7 30 -12.2 10
05:00 1023 30.21 852 25.16 4.1 39.3 33 -10.6 12.8
05:05 1023 30.21 852 25.16 4.1 39.3 31 -11.6 11.1
05:10 1023 30.21 852 25.16 4.2 39.6 35 -10.1 13.9
05:15 1023 30.21 852 25.16 3.9 39 31 -11.7 11
05:20 1023 30.21 852 25.16 4.4 39.9 31 -11.2 11.9
05:25 1023 30.21 852 25.16 4.5 40.1 34 -10.1 13.8
05:30 1023 30.21 852 25.16 4.5 40.1 32 -10.7 12.7
05:35 1023 30.21 852 25.16 5.2 41.3 32 -10.4 13.3
05:40 1023 30.21 852 25.16 4.8 40.7 34 -9.8 14.4
05:45 1023 30.21 852 25.16 3.9 39 34 -10.6 12.9
05:50 1023 30.21 852 25.16 3.5 38.4 38 -9.5 15
05:55 1023 30.21 852 25.16 3 37.4 40 -9.4 15
06:00 1023 30.21 852 25.16 3 37.4 39 -9.6 14.7
06:05 1023 30.21 852 25.16 3.2 37.7 33 -11.5 11.3
06:10 1023 30.21 852 25.16 3.9 39 33 -10.8 12.5
06:15 1023 30.21 852 25.16 3.7 38.7 39 -9.1 15.6
06:20 1023 30.21 852 25.16 3.1 37.7 38 -9.7 14.5
06:25 1023 30.21 852 25.16 3.3 37.9 38 -9.8 14.3
06:30 1023 30.21 852 25.16 3 37.4 41 -9.1 15.6
06:35 1022 30.18 852 25.16 2.9 37.2 38 -10.1 13.7
06:40 1023 30.21 852 25.16 3.5 38.2 33 -11.3 11.6
06:45 1023 30.21 852 25.16 4.1 39.4 31 -11.5 11.3
06:50 1022 30.18 852 25.16 4.6 40.3 30 -11.5 11.3
06:55 1023 30.21 852 25.16 4.4 40 34 -10.1 13.7
07:00 1022 30.18 852 25.16 3.7 38.7 34 -10.6 13
07:05 1022 30.18 852 25.16 3.2 37.8 37 -10 14
07:10 1022 30.18 852 25.16 3.1 37.6 39 -9.7 14.6
07:15 1022 30.18 852 25.16 3.2 37.7 39 -9.5 15
07:20 1023 30.21 852 25.16 3.2 37.8 39 -9.3 15.2
07:25 1023 30.21 852 25.16 3.2 37.8 41 -8.8 16.2
07:30 1023 30.21 852 25.16 3.6 38.4 40 -8.9 15.9
07:35 1023 30.21 852 25.16 3.8 38.8 38 -9.2 15.5
07:40 1023 30.21 852 25.16 4.2 39.5 37 -9.2 15.4
07:45 1023 30.21 852 25.16 4.1 39.4 38 -8.9 16
07:50 1023 30.21 852 25.16 4.1 39.4 36 -9.8 14.4
07:55 1022 30.18 852 25.16 4.8 40.6 35 -9.4 15
08:00 1022 30.18 852 25.16 5.4 41.6 31 -10.4 13.2
08:05 1022 30.18 852 25.16 5.7 42.3 35 -8.6 16.4
08:10 1022 30.18 851 25.13 5.9 42.7 37 -7.7 18.2
08:15 1022 30.18 851 25.13 6.1 43 35 -8.2 17.3
08:20 1022 30.18 851 25.13 6.8 44.2 32 -8.9 16.1
08:25 1022 30.18 851 25.13 7.5 45.5 30 -9.2 15.5
08:30 1022 30.18 851 25.13 7.6 45.7 31 -8.4 16.9
08:35 1022 30.18 851 25.13 8 46.4 33 -7.5 18.6
08:40 1022 30.18 851 25.13 8.7 47.7 31 -7.4 18.7
08:45 1022 30.18 851 25.13 9.1 48.4 31 -7.3 18.8
08:50 1022 30.18 851 25.13 9.3 48.7 26 -9.4 15.1
08:55 1022 30.18 851 25.13 9.8 49.7 23 -10.3 13.4
09:00 1022 30.18 851 25.13 10.2 50.4 21 -11.1 12.1
09:05 1022 30.18 851 25.13 10.4 50.7 21 -10.7 12.7
09:10 1022 30.18 851 25.13 11.4 52.6 22 -9.6 14.6
09:15 1022 30.18 851 25.13 11.6 52.8 30 -5.5 22.2
09:20 1022 30.18 851 25.13 9.6 49.2 33 -5.7 21.7
09:25 1022 30.18 851 25.13 9.2 48.5 32 -6.5 20.4
09:30 1022 30.18 851 25.13 9.5 49.1 31 -6.6 20.1
09:35 1022 30.18 851 25.13 10.6 51 29 -6.7 20
09:40 1022 30.18 851 25.13 11.5 52.7 28 -6.2 20.8
09:45 1022 30.18 851 25.13 11.9 53.5 27 -6.6 20.2
09:50 1022 30.18 851 25.13 12.2 54 25 -7.2 19
09:55 1022 30.18 851 25.13 12.7 54.9 24 -7.1 19.2
10:00 1021 30.15 851 25.13 13.4 56 24 -6.7 20
10:05 1021 30.15 851 25.13 13.8 56.8 22 -7.4 18.8
10:10 1021 30.15 851 25.13 14 57.1 21 -8.2 17.3
10:15 1021 30.15 850 25.1 14 57.2 21 -8.2 17.2
10:20 1021 30.15 850 25.1 13.3 55.9 21 -8.3 17
10:25 1021 30.15 850 25.1 13 55.5 22 -8.5 16.8
10:30 1021 30.15 850 25.1 13.4 56.2 18 -10.3 13.4
10:35 1021 30.15 850 25.1 14.3 57.8 18 -9.7 14.6
10:40 1021 30.15 850 25.1 13.1 55.6 19 -10.2 13.6
10:45 1021 30.15 850 25.1 14.3 57.7 16 -11.3 11.7
10:50 1021 30.15 850 25.1 13.9 57.1 15 -12.1 10.3
10:55 1020 30.12 850 25.1 14.2 57.5 15 -12.3 9.9
11:00 1020 30.12 850 25.1 14.2 57.5 15 -12.3 9.9
11:05 1020 30.12 850 25.1 14.2 57.5 13 -13.4 7.8
11:10 1020 30.12 850 25.1 14 57.2 14 -12.9 8.9
11:15 1020 30.12 850 25.1 13.7 56.6 15 -12.7 9.2
11:20 1020 30.12 850 25.1 14 57.3 14 -13.2 8.3
11:25 1020 30.12 850 25.1 13.8 56.9 14 -12.9 8.8
11:30 1020 30.12 850 25.1 13.3 56 14 -13.7 7.4
11:35 1020 30.12 849 25.07 13.4 56 14 -13.6 7.5
11:40 1020 30.12 849 25.07 13.7 56.7 13 -13.9 6.9
11:45 1020 30.12 849 25.07 13.9 57.1 14 -13.2 8.3
11:50 1020 30.12 849 25.07 15.1 59.2 13 -12.8 8.9
11:55 1020 30.12 849 25.07 16.2 61.1 12 -13.1 8.4
12:00 1020 30.12 849 25.07 16.3 61.3 12 -13.5 7.7
12:05 1020 30.12 849 25.07 15.3 59.6 12 -13.7 7.4
12:10 1020 30.12 849 25.07 16.3 61.3 12 -13.6 7.4
12:15 1020 30.12 849 25.07 16.1 61 12 -13.2 8.3
12:20 1020 30.12 849 25.07 17 62.5 11 -13.2 8.3
12:25 1019 30.09 849 25.07 17.1 62.8 11 -13.1 8.3
12:30 1019 30.09 849 25.07 17.6 63.7 11 -12.9 8.7
12:35 1019 30.09 849 25.07 17.1 62.8 12 -12.5 9.5
12:40 1019 30.09 848 25.04 16 60.8 12 -13 8.6
12:45 1019 30.09 848 25.04 17 62.6 12 -12.7 9.2
12:50 1019 30.09 848 25.04 17.1 62.7 12 -12.1 10.1
12:55 1019 30.09 848 25.04 16 60.9 13 -12.3 9.9
13:00 1019 30.09 848 25.04 16.4 61.5 13 -11.9 10.6
13:05 1019 30.09 848 25.04 17 62.6 13 -11.6 11.2
13:10 1019 30.09 848 25.04 17.3 63.1 12 -12.1 10.3
13:15 1019 30.09 848 25.04 17.8 64 12 -12.1 10.2
13:20 1018 30.06 848 25.04 17.5 63.6 12 -11.7 11
13:25 1018 30.06 847 25.01 17.8 64.1 12 -12.3 9.8
13:30 1018 30.06 847 25.01 18.7 65.7 11 -11.8 10.8
13:35 1018 30.06 847 25.01 19.4 66.8 11 -11.9 10.6
13:40 1018 30.06 847 25.01 19.2 66.6 11 -11.5 11.3
13:45 1018 30.06 847 25.01 19.2 66.5 11 -11.7 11
13:50 1018 30.06 847 25.01 18.9 66 12 -11.4 11.5
13:55 1018 30.06 847 25.01 18.6 65.5 12 -11.6 11.2
14:00 1017 30.03 847 25.01 18.8 65.8 12 -10.9 12.3
14:05 1017 30.03 847 25.01 19.1 66.3 12 -10.9 12.3
14:10 1017 30.03 847 25.01 19.5 67.1 12 -10.8 12.6
14:15 1017 30.03 846 24.98 19.3 66.7 12 -10.9 12.4
14:20 1017 30.03 846 24.98 18.8 65.8 12 -11.1 12
14:25 1017 30.03 846 24.98 19 66.1 12 -10.8 12.6
14:30 1017 30.03 846 24.98 19 66.1 12 -10.9 12.4
14:35 1017 30.03 846 24.98 19.1 66.4 12 -10.6 13
14:40 1017 30.03 846 24.98 19.2 66.5 12 -10.3 13.4
14:45 1017 30.03 846 24.98 18.9 66.1 13 -10.3 13.4
14:50 1017 30.03 846 24.98 18.7 65.6 13 -10.4 13.3
14:55 1017 30.03 846 24.98 18.1 64.6 13 -10.8 12.5
15:00 1017 30.03 846 24.98 18.1 64.6 13 -10.9 12.4
15:05 1017 30.03 846 24.98 17.8 64.1 13 -10.7 12.7
15:10 1016 30 846 24.98 17.3 63.2 14 -10.8 12.6
15:15 1016 30 846 24.98 17.7 63.8 13 -10.8 12.5
15:20 1016 30 846 24.98 17.7 63.8 13 -10.6 12.9
15:25 1016 30 846 24.98 17.4 63.3 13 -11 12.2
15:30 1016 30 845 24.95 17.2 63 13 -11 12.3
15:35 1016 30 845 24.95 17.2 62.9 14 -10.8 12.6
15:40 1016 30 845 24.95 17.1 62.8 13 -11.2 11.9
15:45 1016 30 845 24.95 17.1 62.8 13 -11 12.2
15:50 1016 30 845 24.95 17 62.5 14 -11 12.2
15:55 1016 30 845 24.95 16.4 61.6 14 -10.9 12.3
16:00 1016 30 845 24.95 16 60.8 14 -11.3 11.7
16:05 1016 30 845 24.95 15.8 60.5 14 -11.3 11.7
16:10 1016 30 845 24.95 16 60.7 14 -11.2 11.9
16:15 1016 30 845 24.95 15.8 60.4 14 -11.4 11.6
16:20 1016 30 845 24.95 15.8 60.4 14 -11.3 11.7
16:25 1016 30 845 24.95 15.8 60.4 15 -11.2 11.9
16:30 1016 30 845 24.95 15.7 60.2 15 -11.2 11.8
16:35 1016 30 845 24.95 15.5 59.9 14 -11.6 11.1
16:40 1016 30 845 24.95 15.6 60 14 -11.8 10.8
16:45 1016 30 845 24.95 15.5 60 13 -12.4 9.7
16:50 1016 30 845 24.95 15.4 59.8 13 -12.6 9.2
16:55 1016 30 845 24.95 15.4 59.7 13 -12.8 8.9
17:00 1015 29.97 845 24.95 15.6 60 12 -13.4 7.9
17:05 1015 29.97 845 24.95 15.7 60.2 12 -13.3 8.1
17:10 1015 29.97 845 24.95 15.8 60.4 12 -13.3 8
17:15 1015 29.97 845 24.95 15.8 60.5 14 -11.7 10.9
17:20 1015 29.97 845 24.95 14.6 58.3 16 -10.7 12.8
17:25 1015 29.97 844 24.92 13.9 57 19 -9.5 14.8
17:30 1015 29.97 844 24.92 13.6 56.5 18 -10.1 13.8
17:35 1015 29.97 844 24.92 13.4 56.1 16 -11.7 11
17:40 1015 29.97 844 24.92 13.7 56.7 18 -10.3 13.5
17:45 1015 29.97 844 24.92 13.7 56.7 16 -11.8 10.7
17:50 1015 29.97 844 24.92 13.5 56.3 21 -8.6 16.5
17:55 1015 29.97 844 24.92 13.1 55.6 21 -8.5 16.7
18:00 1015 29.97 844 24.92 12.8 55 22 -8.7 16.4
18:05 1015 29.97 844 24.92 12.4 54.4 24 -7.7 18.1
18:10 1015 29.97 844 24.92 12.3 54.1 23 -8.1 17.5
18:15 1015 29.97 844 24.92 12.2 53.9 23 -8.3 17
18:20 1015 29.97 844 24.92 12.6 54.6 19 -10.3 13.5
18:25 1015 29.97 844 24.92 13.3 55.9 18 -10.8 12.6
18:30 1015 29.97 844 24.92 14.1 57.3 15 -11.9 10.6
18:35 1015 29.97 844 24.92 14.8 58.7 15 -11.6 11
18:40 1015 29.97 844 24.92 15.2 59.4 15 -11.4 11.6
18:45 1015 29.97 844 24.92 15.4 59.6 15 -10.9 12.4
18:50 1015 29.97 844 24.92 15.1 59.1 16 -10.9 12.4
18:55 1015 29.97 844 24.92 15.1 59.1 16 -10.7 12.8
19:00 1015 29.97 844 24.92 14.8 58.7 17 -10.1 13.8
19:05 1015 29.97 844 24.92 14.6 58.3 16 -11 12.1
19:10 1015 29.97 844 24.92 14.6 58.3 16 -11.3 11.7
19:15 1015 29.97 844 24.92 14.9 58.7 15 -11.2 11.9
19:20 1015 29.97 844 24.92 14.5 58.2 17 -10 14
19:25 1015 29.97 844 24.92 14.1 57.4 18 -10.1 13.8
19:30 1015 29.97 844 24.92 13.9 57.1 19 -9.5 15
19:35 1015 29.97 844 24.92 13.6 56.4 19 -9.9 14.2
19:40 1015 29.97 844 24.92 13.7 56.7 18 -10 14
19:45 1015 29.97 844 24.92 13.6 56.6 17 -11.1 12
19:50 1014 29.94 844 24.92 13.8 56.8 16 -11.7 11
19:55 1014 29.94 844 24.92 13.7 56.7 16 -11.8 10.7
20:00 1014 29.94 843 24.89 13.9 57 15 -12.4 9.6
20:05 1014 29.94 843 24.89 14 57.1 15 -12.1 10.3
20:10 1014 29.94 843 24.89 13.5 56.2 16 -12.1 10.2
20:15 1014 29.94 843 24.89 13.4 56.2 16 -12.2 10
20:20 1014 29.94 843 24.89 13.3 55.9 15 -12.8 8.9
20:25 1014 29.94 843 24.89 13.7 56.7 14 -13.7 7.4
20:30 1014 29.94 843 24.89 14 57.1 14 -12.7 9.1
20:35 1014 29.94 843 24.89 13.7 56.6 14 -13 8.7
20:40 1014 29.94 843 24.89 13.5 56.2 15 -12.9 8.7
20:45 1014 29.94 843 24.89 13.5 56.3 14 -13.2 8.2
20:50 1014 29.94 843 24.89 13.7 56.6 14 -13.2 8.3
20:55 1014 29.94 843 24.89 13.5 56.3 15 -13 8.6
21:00 1014 29.94 843 24.89 13.5 56.2 15 -12.8 9
21:05 1014 29.94 843 24.89 13.3 55.9 14 -13.3 8
21:10 1014 29.94 843 24.89 13.3 56 15 -12.9 8.8
21:15 1014 29.94 843 24.89 13.1 55.6 15 -12.8 8.9
21:20 1014 29.94 843 24.89 13.3 56 14 -13.6 7.5
21:25 1014 29.94 843 24.89 13.6 56.4 14 -13.1 8.3
21:30 1014 29.94 843 24.89 13.5 56.2 14 -13.8 7.1
21:35 1014 29.94 843 24.89 13.6 56.4 14 -13.3 8
21:40 1014 29.94 843 24.89 13.6 56.5 14 -13.8 7.2
21:45 1014 29.94 843 24.89 13.6 56.5 14 -13.1 8.4
21:50 1014 29.94 843 24.89 13.3 56 14 -13.3 8
21:55 1014 29.94 843 24.89 13.5 56.2 14 -13.5 7.8
22:00 1014 29.94 843 24.89 13.5 56.3 14 -13.9 7
22:05 1014 29.94 843 24.89 13.8 56.8 13 -14.4 6.1
22:10 1014 29.94 843 24.89 13.9 57.1 13 -13.6 7.5
22:15 1014 29.94 843 24.89 13.8 56.8 14 -13.6 7.6
22:20 1014 29.94 843 24.89 13.5 56.3 14 -13.7 7.4
22:25 1014 29.94 843 24.89 13.5 56.3 13 -14.7 5.5
22:30 1014 29.94 843 24.89 14 57.2 13 -13.9 7
22:35 1014 29.94 843 24.89 13.6 56.5 13 -14.1 6.6
22:40 1013 29.91 843 24.89 13.4 56 14 -13.6 7.6
22:45 1013 29.91 843 24.89 13.2 55.7 14 -13.5 7.6
22:50 1013 29.91 843 24.89 13.2 55.7 14 -13.5 7.8
22:55 1013 29.91 843 24.89 13 55.4 15 -12.9 8.8
23:00 1013 29.91 843 24.89 12.6 54.6 16 -12.6 9.4
23:05 1013 29.91 842 24.86 12.2 53.9 17 -12.3 9.9
23:10 1013 29.91 842 24.86 12.1 53.8 16 -13.1 8.4
23:15 1013 29.91 842 24.86 12.3 54.2 16 -13 8.6
23:20 1013 29.91 842 24.86 12.4 54.3 16 -13.1 8.4
23:25 1013 29.91 842 24.86 12.3 54.2 16 -12.9 8.8
23:30 1013 29.91 842 24.86 12.1 53.8 16 -12.7 9.1
23:35 1013 29.91 842 24.86 12 53.6 16 -12.9 8.8
23:40 1013 29.91 842 24.86 12 53.5 18 -11.9 10.6
23:45 1013 29.91 842 24.86 11.9 53.4 17 -12.1 10.3
23:50 1013 29.91 842 24.86 12.1 53.7 18 -11.7 11
23:55 1012 29.88 842 24.86 12.1 53.8 17 -12.5 9.6
24:00 1012 29.88 842 24.86 12.5 54.4 16 -12.8 9